sensor_id;sensor_type;location;lat;lon;timestamp;P1;durP1;ratioP1;P2;durP2;ratioP2
11141;SDS011;5625;50.122;19.864;2023-03-23T00:02:22;19.60;;;15.30;;
11141;SDS011;5625;50.122;19.864;2023-03-23T00:04:50;19.97;;;15.63;;
11141;SDS011;5625;50.122;19.864;2023-03-23T00:07:19;18.20;;;14.77;;
11141;SDS011;5625;50.122;19.864;2023-03-23T00:09:47;18.63;;;16.03;;
11141;SDS011;5625;50.122;19.864;2023-03-23T00:12:18;18.00;;;14.83;;
11141;SDS011;5625;50.122;19.864;2023-03-23T00:14:46;17.80;;;15.20;;
11141;SDS011;5625;50.122;19.864;2023-03-23T00:17:13;19.83;;;15.90;;
11141;SDS011;5625;50.122;19.864;2023-03-23T00:19:40;18.43;;;16.47;;
11141;SDS011;5625;50.122;19.864;2023-03-23T00:22:17;19.83;;;15.87;;
11141;SDS011;5625;50.122;19.864;2023-03-23T00:24:47;21.40;;;16.53;;
11141;SDS011;5625;50.122;19.864;2023-03-23T00:27:15;20.23;;;16.87;;
11141;SDS011;5625;50.122;19.864;2023-03-23T00:29:42;20.30;;;16.00;;
11141;SDS011;5625;50.122;19.864;2023-03-23T00:32:11;19.20;;;15.27;;
11141;SDS011;5625;50.122;19.864;2023-03-23T00:34:42;17.00;;;15.07;;
11141;SDS011;5625;50.122;19.864;2023-03-23T00:37:11;21.00;;;16.23;;
11141;SDS011;5625;50.122;19.864;2023-03-23T00:39:38;16.80;;;14.70;;
11141;SDS011;5625;50.122;19.864;2023-03-23T00:42:12;20.33;;;15.83;;
11141;SDS011;5625;50.122;19.864;2023-03-23T00:44:41;16.93;;;15.13;;
11141;SDS011;5625;50.122;19.864;2023-03-23T00:47:09;18.07;;;15.57;;
11141;SDS011;5625;50.122;19.864;2023-03-23T00:49:37;17.13;;;15.10;;
11141;SDS011;5625;50.122;19.864;2023-03-23T00:52:06;18.10;;;15.33;;
11141;SDS011;5625;50.122;19.864;2023-03-23T00:54:33;17.83;;;15.53;;
11141;SDS011;5625;50.122;19.864;2023-03-23T00:57:03;17.67;;;15.20;;
11141;SDS011;5625;50.122;19.864;2023-03-23T00:59:32;17.47;;;14.90;;
11141;SDS011;5625;50.122;19.864;2023-03-23T01:02:00;18.60;;;15.13;;
11141;SDS011;5625;50.122;19.864;2023-03-23T01:04:27;18.93;;;14.77;;
11141;SDS011;5625;50.122;19.864;2023-03-23T01:06:56;18.77;;;15.30;;
11141;SDS011;5625;50.122;19.864;2023-03-23T01:09:25;17.20;;;14.83;;
11141;SDS011;5625;50.122;19.864;2023-03-23T01:11:53;19.73;;;15.97;;
11141;SDS011;5625;50.122;19.864;2023-03-23T01:14:21;17.43;;;15.07;;
11141;SDS011;5625;50.122;19.864;2023-03-23T01:16:49;18.13;;;15.03;;
11141;SDS011;5625;50.122;19.864;2023-03-23T01:19:17;18.63;;;16.23;;
11141;SDS011;5625;50.122;19.864;2023-03-23T01:21:44;18.43;;;15.93;;
11141;SDS011;5625;50.122;19.864;2023-03-23T01:24:11;17.17;;;15.37;;
11141;SDS011;5625;50.122;19.864;2023-03-23T01:26:37;20.00;;;17.17;;
11141;SDS011;5625;50.122;19.864;2023-03-23T01:29:04;18.17;;;15.70;;
11141;SDS011;5625;50.122;19.864;2023-03-23T01:31:32;17.90;;;16.00;;
11141;SDS011;5625;50.122;19.864;2023-03-23T01:34:03;21.10;;;16.50;;
11141;SDS011;5625;50.122;19.864;2023-03-23T01:36:30;20.60;;;16.80;;
11141;SDS011;5625;50.122;19.864;2023-03-23T01:38:59;19.30;;;15.50;;
11141;SDS011;5625;50.122;19.864;2023-03-23T01:41:29;19.23;;;15.50;;
11141;SDS011;5625;50.122;19.864;2023-03-23T01:43:58;19.03;;;16.47;;
11141;SDS011;5625;50.122;19.864;2023-03-23T01:46:28;23.40;;;16.97;;
11141;SDS011;5625;50.122;19.864;2023-03-23T01:48:56;21.53;;;18.33;;
11141;SDS011;5625;50.122;19.864;2023-03-23T01:51:32;23.27;;;18.50;;
11141;SDS011;5625;50.122;19.864;2023-03-23T01:54:02;22.70;;;18.93;;
11141;SDS011;5625;50.122;19.864;2023-03-23T01:56:34;25.77;;;18.90;;
11141;SDS011;5625;50.122;19.864;2023-03-23T01:59:06;22.00;;;18.47;;
11141;SDS011;5625;50.122;19.864;2023-03-23T02:01:34;23.53;;;18.27;;
11141;SDS011;5625;50.122;19.864;2023-03-23T02:04:03;22.10;;;18.20;;
11141;SDS011;5625;50.122;19.864;2023-03-23T02:06:32;21.50;;;17.50;;
11141;SDS011;5625;50.122;19.864;2023-03-23T02:08:59;22.57;;;18.57;;
11141;SDS011;5625;50.122;19.864;2023-03-23T02:11:28;19.30;;;17.07;;
11141;SDS011;5625;50.122;19.864;2023-03-23T02:13:55;21.40;;;18.47;;
11141;SDS011;5625;50.122;19.864;2023-03-23T02:16:26;22.30;;;17.83;;
11141;SDS011;5625;50.122;19.864;2023-03-23T02:19:03;22.00;;;18.13;;
11141;SDS011;5625;50.122;19.864;2023-03-23T02:22:10;21.73;;;17.30;;
11141;SDS011;5625;50.122;19.864;2023-03-23T02:25:00;21.33;;;17.03;;
11141;SDS011;5625;50.122;19.864;2023-03-23T02:30:56;21.30;;;17.23;;
11141;SDS011;5625;50.122;19.864;2023-03-23T02:33:45;20.90;;;17.83;;
11141;SDS011;5625;50.122;19.864;2023-03-23T02:36:19;21.57;;;17.27;;
11141;SDS011;5625;50.122;19.864;2023-03-23T02:38:53;21.57;;;17.53;;
11141;SDS011;5625;50.122;19.864;2023-03-23T02:41:27;21.20;;;17.37;;
11141;SDS011;5625;50.122;19.864;2023-03-23T02:43:56;21.50;;;18.23;;
11141;SDS011;5625;50.122;19.864;2023-03-23T02:46:24;23.70;;;18.87;;
11141;SDS011;5625;50.122;19.864;2023-03-23T02:48:54;20.67;;;17.60;;
11141;SDS011;5625;50.122;19.864;2023-03-23T02:51:23;21.57;;;17.60;;
11141;SDS011;5625;50.122;19.864;2023-03-23T02:53:53;22.10;;;18.37;;
11141;SDS011;5625;50.122;19.864;2023-03-23T02:56:23;20.50;;;18.20;;
11141;SDS011;5625;50.122;19.864;2023-03-23T02:58:53;23.63;;;18.60;;
11141;SDS011;5625;50.122;19.864;2023-03-23T03:04:21;24.20;;;19.27;;
11141;SDS011;5625;50.122;19.864;2023-03-23T03:06:55;23.77;;;18.73;;
11141;SDS011;5625;50.122;19.864;2023-03-23T03:09:34;23.00;;;19.33;;
11141;SDS011;5625;50.122;19.864;2023-03-23T03:12:09;22.63;;;18.93;;
11141;SDS011;5625;50.122;19.864;2023-03-23T03:14:44;23.50;;;18.87;;
11141;SDS011;5625;50.122;19.864;2023-03-23T03:17:17;24.63;;;18.43;;
11141;SDS011;5625;50.122;19.864;2023-03-23T03:19:52;22.80;;;18.50;;
11141;SDS011;5625;50.122;19.864;2023-03-23T03:22:23;22.57;;;19.00;;
11141;SDS011;5625;50.122;19.864;2023-03-23T03:24:54;25.60;;;20.13;;
11141;SDS011;5625;50.122;19.864;2023-03-23T03:27:24;26.20;;;21.03;;
11141;SDS011;5625;50.122;19.864;2023-03-23T03:29:53;23.73;;;20.43;;
11141;SDS011;5625;50.122;19.864;2023-03-23T03:32:24;24.33;;;19.13;;
11141;SDS011;5625;50.122;19.864;2023-03-23T03:34:59;24.07;;;20.07;;
11141;SDS011;5625;50.122;19.864;2023-03-23T03:37:27;23.97;;;20.00;;
11141;SDS011;5625;50.122;19.864;2023-03-23T03:40:03;24.57;;;19.87;;
11141;SDS011;5625;50.122;19.864;2023-03-23T03:42:36;26.57;;;20.40;;
11141;SDS011;5625;50.122;19.864;2023-03-23T03:45:03;27.03;;;20.30;;
11141;SDS011;5625;50.122;19.864;2023-03-23T03:47:32;24.07;;;19.57;;
11141;SDS011;5625;50.122;19.864;2023-03-23T03:50:01;24.93;;;20.57;;
11141;SDS011;5625;50.122;19.864;2023-03-23T03:52:29;26.83;;;21.17;;
11141;SDS011;5625;50.122;19.864;2023-03-23T03:54:56;25.23;;;19.90;;
11141;SDS011;5625;50.122;19.864;2023-03-23T03:57:24;26.20;;;21.20;;
11141;SDS011;5625;50.122;19.864;2023-03-23T03:59:51;26.07;;;21.07;;
11141;SDS011;5625;50.122;19.864;2023-03-23T04:02:18;26.90;;;20.23;;
11141;SDS011;5625;50.122;19.864;2023-03-23T04:04:46;22.20;;;19.43;;
11141;SDS011;5625;50.122;19.864;2023-03-23T04:07:14;23.83;;;18.60;;
11141;SDS011;5625;50.122;19.864;2023-03-23T04:09:42;23.27;;;18.87;;
11141;SDS011;5625;50.122;19.864;2023-03-23T04:12:11;22.90;;;18.67;;
11141;SDS011;5625;50.122;19.864;2023-03-23T04:14:38;21.20;;;18.27;;
11141;SDS011;5625;50.122;19.864;2023-03-23T04:17:05;23.07;;;19.47;;
11141;SDS011;5625;50.122;19.864;2023-03-23T04:19:34;21.27;;;18.07;;
11141;SDS011;5625;50.122;19.864;2023-03-23T04:22:02;23.43;;;18.20;;
11141;SDS011;5625;50.122;19.864;2023-03-23T04:24:30;23.40;;;17.73;;
11141;SDS011;5625;50.122;19.864;2023-03-23T04:26:58;20.87;;;18.00;;
11141;SDS011;5625;50.122;19.864;2023-03-23T04:29:25;20.03;;;16.70;;
11141;SDS011;5625;50.122;19.864;2023-03-23T04:31:52;19.27;;;17.10;;
11141;SDS011;5625;50.122;19.864;2023-03-23T04:34:21;20.60;;;16.73;;
11141;SDS011;5625;50.122;19.864;2023-03-23T04:36:48;17.27;;;15.37;;
11141;SDS011;5625;50.122;19.864;2023-03-23T04:39:16;17.37;;;15.53;;
11141;SDS011;5625;50.122;19.864;2023-03-23T04:41:44;17.27;;;15.33;;
11141;SDS011;5625;50.122;19.864;2023-03-23T04:44:11;18.00;;;14.27;;
11141;SDS011;5625;50.122;19.864;2023-03-23T04:46:43;16.13;;;13.80;;
11141;SDS011;5625;50.122;19.864;2023-03-23T04:49:14;19.13;;;13.70;;
11141;SDS011;5625;50.122;19.864;2023-03-23T04:51:46;16.27;;;13.53;;
11141;SDS011;5625;50.122;19.864;2023-03-23T04:54:15;15.50;;;13.40;;
11141;SDS011;5625;50.122;19.864;2023-03-23T04:56:43;15.53;;;12.50;;
11141;SDS011;5625;50.122;19.864;2023-03-23T04:59:11;18.10;;;12.57;;
11141;SDS011;5625;50.122;19.864;2023-03-23T05:01:40;15.73;;;14.00;;
11141;SDS011;5625;50.122;19.864;2023-03-23T05:04:11;16.50;;;12.93;;
11141;SDS011;5625;50.122;19.864;2023-03-23T05:06:41;16.63;;;13.60;;
11141;SDS011;5625;50.122;19.864;2023-03-23T05:09:09;17.20;;;13.57;;
11141;SDS011;5625;50.122;19.864;2023-03-23T05:11:36;15.27;;;11.67;;
11141;SDS011;5625;50.122;19.864;2023-03-23T05:14:05;16.30;;;14.10;;
11141;SDS011;5625;50.122;19.864;2023-03-23T05:16:32;15.57;;;12.10;;
11141;SDS011;5625;50.122;19.864;2023-03-23T05:19:01;15.43;;;13.23;;
11141;SDS011;5625;50.122;19.864;2023-03-23T05:21:29;14.60;;;12.83;;
11141;SDS011;5625;50.122;19.864;2023-03-23T05:23:56;13.70;;;12.23;;
11141;SDS011;5625;50.122;19.864;2023-03-23T05:26:26;14.10;;;11.43;;
11141;SDS011;5625;50.122;19.864;2023-03-23T05:28:54;13.37;;;11.10;;
11141;SDS011;5625;50.122;19.864;2023-03-23T05:31:23;12.10;;;10.00;;
11141;SDS011;5625;50.122;19.864;2023-03-23T05:33:50;13.27;;;10.30;;
11141;SDS011;5625;50.122;19.864;2023-03-23T05:36:21;11.23;;;10.10;;
11141;SDS011;5625;50.122;19.864;2023-03-23T05:38:50;11.23;;;9.40;;
11141;SDS011;5625;50.122;19.864;2023-03-23T05:41:17;11.57;;;9.57;;
11141;SDS011;5625;50.122;19.864;2023-03-23T05:43:44;12.13;;;9.07;;
11141;SDS011;5625;50.122;19.864;2023-03-23T05:46:13;13.60;;;9.73;;
11141;SDS011;5625;50.122;19.864;2023-03-23T05:48:41;11.37;;;8.93;;
11141;SDS011;5625;50.122;19.864;2023-03-23T05:51:08;13.30;;;8.73;;
11141;SDS011;5625;50.122;19.864;2023-03-23T05:53:36;12.40;;;9.13;;
11141;SDS011;5625;50.122;19.864;2023-03-23T05:56:04;14.30;;;9.27;;
11141;SDS011;5625;50.122;19.864;2023-03-23T05:58:32;11.77;;;9.30;;
11141;SDS011;5625;50.122;19.864;2023-03-23T06:00:59;12.47;;;8.90;;
11141;SDS011;5625;50.122;19.864;2023-03-23T06:03:26;12.70;;;9.00;;
11141;SDS011;5625;50.122;19.864;2023-03-23T06:05:54;9.70;;;8.70;;
11141;SDS011;5625;50.122;19.864;2023-03-23T06:08:21;10.13;;;8.87;;
11141;SDS011;5625;50.122;19.864;2023-03-23T06:10:49;12.33;;;9.73;;
11141;SDS011;5625;50.122;19.864;2023-03-23T06:13:17;12.70;;;9.80;;
11141;SDS011;5625;50.122;19.864;2023-03-23T06:15:44;11.17;;;9.87;;
11141;SDS011;5625;50.122;19.864;2023-03-23T06:18:11;10.90;;;9.63;;
11141;SDS011;5625;50.122;19.864;2023-03-23T06:20:39;12.97;;;10.53;;
11141;SDS011;5625;50.122;19.864;2023-03-23T06:23:08;12.37;;;10.03;;
11141;SDS011;5625;50.122;19.864;2023-03-23T06:25:35;12.37;;;10.53;;
11141;SDS011;5625;50.122;19.864;2023-03-23T06:28:02;12.30;;;9.27;;
11141;SDS011;5625;50.122;19.864;2023-03-23T06:30:29;10.60;;;8.47;;
11141;SDS011;5625;50.122;19.864;2023-03-23T06:32:56;14.37;;;9.00;;
11141;SDS011;5625;50.122;19.864;2023-03-23T06:35:23;10.33;;;7.80;;
11141;SDS011;5625;50.122;19.864;2023-03-23T06:37:50;10.23;;;7.30;;
11141;SDS011;5625;50.122;19.864;2023-03-23T06:40:20;9.73;;;7.77;;
11141;SDS011;5625;50.122;19.864;2023-03-23T06:42:47;9.00;;;7.53;;
11141;SDS011;5625;50.122;19.864;2023-03-23T06:45:14;10.60;;;7.47;;
11141;SDS011;5625;50.122;19.864;2023-03-23T06:47:41;9.17;;;7.13;;
11141;SDS011;5625;50.122;19.864;2023-03-23T06:50:08;10.37;;;7.53;;
11141;SDS011;5625;50.122;19.864;2023-03-23T06:52:36;12.33;;;7.13;;
11141;SDS011;5625;50.122;19.864;2023-03-23T06:55:03;10.07;;;7.60;;
11141;SDS011;5625;50.122;19.864;2023-03-23T06:57:33;9.27;;;7.17;;
11141;SDS011;5625;50.122;19.864;2023-03-23T07:00:01;11.67;;;7.53;;
11141;SDS011;5625;50.122;19.864;2023-03-23T07:02:38;11.03;;;6.87;;
11141;SDS011;5625;50.122;19.864;2023-03-23T07:05:06;10.60;;;6.23;;
11141;SDS011;5625;50.122;19.864;2023-03-23T07:07:34;10.50;;;7.03;;
11141;SDS011;5625;50.122;19.864;2023-03-23T07:10:01;9.57;;;6.83;;
11141;SDS011;5625;50.122;19.864;2023-03-23T07:12:28;12.90;;;7.10;;
11141;SDS011;5625;50.122;19.864;2023-03-23T07:14:56;10.93;;;7.13;;
11141;SDS011;5625;50.122;19.864;2023-03-23T07:17:26;11.77;;;7.90;;
11141;SDS011;5625;50.122;19.864;2023-03-23T07:19:53;10.03;;;8.10;;
11141;SDS011;5625;50.122;19.864;2023-03-23T07:22:20;9.87;;;8.00;;
11141;SDS011;5625;50.122;19.864;2023-03-23T07:24:47;13.13;;;8.47;;
11141;SDS011;5625;50.122;19.864;2023-03-23T07:27:15;12.63;;;8.47;;
11141;SDS011;5625;50.122;19.864;2023-03-23T07:29:44;10.20;;;8.37;;
11141;SDS011;5625;50.122;19.864;2023-03-23T07:32:13;12.73;;;8.60;;
11141;SDS011;5625;50.122;19.864;2023-03-23T07:34:40;10.27;;;9.10;;
11141;SDS011;5625;50.122;19.864;2023-03-23T07:37:07;13.47;;;8.50;;
11141;SDS011;5625;50.122;19.864;2023-03-23T07:39:35;12.77;;;8.67;;
11141;SDS011;5625;50.122;19.864;2023-03-23T07:42:02;14.80;;;8.67;;
11141;SDS011;5625;50.122;19.864;2023-03-23T07:44:29;13.73;;;8.83;;
11141;SDS011;5625;50.122;19.864;2023-03-23T07:46:56;12.67;;;9.40;;
11141;SDS011;5625;50.122;19.864;2023-03-23T07:49:25;16.43;;;9.37;;
11141;SDS011;5625;50.122;19.864;2023-03-23T07:51:55;12.00;;;8.80;;
11141;SDS011;5625;50.122;19.864;2023-03-23T07:54:27;13.07;;;8.87;;
11141;SDS011;5625;50.122;19.864;2023-03-23T07:56:53;12.43;;;8.90;;
11141;SDS011;5625;50.122;19.864;2023-03-23T07:59:22;14.60;;;8.23;;
11141;SDS011;5625;50.122;19.864;2023-03-23T08:01:49;13.20;;;8.80;;
11141;SDS011;5625;50.122;19.864;2023-03-23T08:04:19;12.67;;;9.13;;
11141;SDS011;5625;50.122;19.864;2023-03-23T08:06:47;10.47;;;7.67;;
11141;SDS011;5625;50.122;19.864;2023-03-23T08:09:14;9.20;;;7.80;;
11141;SDS011;5625;50.122;19.864;2023-03-23T08:11:41;12.43;;;7.77;;
11141;SDS011;5625;50.122;19.864;2023-03-23T08:14:08;9.90;;;7.83;;
11141;SDS011;5625;50.122;19.864;2023-03-23T08:16:36;12.53;;;8.60;;
11141;SDS011;5625;50.122;19.864;2023-03-23T08:19:03;12.17;;;9.63;;
11141;SDS011;5625;50.122;19.864;2023-03-23T08:21:31;14.47;;;10.50;;
11141;SDS011;5625;50.122;19.864;2023-03-23T08:23:59;13.07;;;10.60;;
11141;SDS011;5625;50.122;19.864;2023-03-23T08:26:26;13.00;;;10.40;;
11141;SDS011;5625;50.122;19.864;2023-03-23T08:28:53;15.17;;;10.50;;
11141;SDS011;5625;50.122;19.864;2023-03-23T08:31:20;13.37;;;9.57;;
11141;SDS011;5625;50.122;19.864;2023-03-23T08:33:47;12.50;;;9.63;;
11141;SDS011;5625;50.122;19.864;2023-03-23T08:36:23;12.83;;;9.27;;
11141;SDS011;5625;50.122;19.864;2023-03-23T08:38:50;10.63;;;8.93;;
11141;SDS011;5625;50.122;19.864;2023-03-23T08:41:19;13.00;;;10.30;;
11141;SDS011;5625;50.122;19.864;2023-03-23T08:43:47;13.03;;;9.40;;
11141;SDS011;5625;50.122;19.864;2023-03-23T08:46:14;15.53;;;9.97;;
11141;SDS011;5625;50.122;19.864;2023-03-23T08:48:40;15.53;;;10.50;;
11141;SDS011;5625;50.122;19.864;2023-03-23T08:51:08;13.97;;;10.20;;
11141;SDS011;5625;50.122;19.864;2023-03-23T08:53:35;16.40;;;10.37;;
11141;SDS011;5625;50.122;19.864;2023-03-23T08:56:06;13.33;;;9.70;;
11141;SDS011;5625;50.122;19.864;2023-03-23T08:58:36;15.63;;;9.97;;
11141;SDS011;5625;50.122;19.864;2023-03-23T09:01:03;12.90;;;9.30;;
11141;SDS011;5625;50.122;19.864;2023-03-23T09:03:32;12.23;;;9.17;;
11141;SDS011;5625;50.122;19.864;2023-03-23T09:06:00;12.07;;;9.10;;
11141;SDS011;5625;50.122;19.864;2023-03-23T09:08:28;13.60;;;8.97;;
11141;SDS011;5625;50.122;19.864;2023-03-23T09:10:55;10.10;;;7.83;;
11141;SDS011;5625;50.122;19.864;2023-03-23T09:13:27;11.80;;;7.70;;
11141;SDS011;5625;50.122;19.864;2023-03-23T09:15:56;10.37;;;7.53;;
11141;SDS011;5625;50.122;19.864;2023-03-23T09:18:23;8.50;;;6.77;;
11141;SDS011;5625;50.122;19.864;2023-03-23T09:20:51;7.73;;;5.20;;
11141;SDS011;5625;50.122;19.864;2023-03-23T09:23:21;6.93;;;5.10;;
11141;SDS011;5625;50.122;19.864;2023-03-23T09:25:49;8.53;;;4.90;;
11141;SDS011;5625;50.122;19.864;2023-03-23T09:28:17;6.83;;;4.80;;
11141;SDS011;5625;50.122;19.864;2023-03-23T09:30:44;4.50;;;4.10;;
11141;SDS011;5625;50.122;19.864;2023-03-23T09:33:14;5.73;;;3.90;;
11141;SDS011;5625;50.122;19.864;2023-03-23T09:35:41;4.70;;;4.20;;
11141;SDS011;5625;50.122;19.864;2023-03-23T09:38:09;5.00;;;3.87;;
11141;SDS011;5625;50.122;19.864;2023-03-23T09:40:39;4.83;;;3.57;;
11141;SDS011;5625;50.122;19.864;2023-03-23T09:46:17;5.20;;;3.60;;
11141;SDS011;5625;50.122;19.864;2023-03-23T09:48:59;4.50;;;3.90;;
11141;SDS011;5625;50.122;19.864;2023-03-23T09:51:34;5.47;;;3.50;;
11141;SDS011;5625;50.122;19.864;2023-03-23T09:54:10;5.87;;;3.63;;
11141;SDS011;5625;50.122;19.864;2023-03-23T09:56:45;4.27;;;3.20;;
11141;SDS011;5625;50.122;19.864;2023-03-23T09:59:16;3.97;;;3.00;;
11141;SDS011;5625;50.122;19.864;2023-03-23T10:01:47;3.70;;;2.97;;
11141;SDS011;5625;50.122;19.864;2023-03-23T10:04:25;4.33;;;2.67;;
11141;SDS011;5625;50.122;19.864;2023-03-23T10:06:58;4.20;;;2.90;;
11141;SDS011;5625;50.122;19.864;2023-03-23T10:09:35;2.87;;;2.57;;
11141;SDS011;5625;50.122;19.864;2023-03-23T10:12:04;7.53;;;3.10;;
11141;SDS011;5625;50.122;19.864;2023-03-23T10:17:28;8.30;;;2.90;;
11141;SDS011;5625;50.122;19.864;2023-03-23T10:20:02;3.90;;;2.97;;
11141;SDS011;5625;50.122;19.864;2023-03-23T10:22:45;4.47;;;2.50;;
11141;SDS011;5625;50.122;19.864;2023-03-23T10:25:19;5.73;;;2.40;;
11141;SDS011;5625;50.122;19.864;2023-03-23T10:27:49;4.67;;;2.77;;
11141;SDS011;5625;50.122;19.864;2023-03-23T10:30:22;7.83;;;2.80;;
11141;SDS011;5625;50.122;19.864;2023-03-23T10:32:53;6.80;;;2.83;;
11141;SDS011;5625;50.122;19.864;2023-03-23T10:35:26;3.97;;;2.80;;
11141;SDS011;5625;50.122;19.864;2023-03-23T10:37:59;5.00;;;2.47;;
11141;SDS011;5625;50.122;19.864;2023-03-23T10:40:29;4.23;;;2.77;;
11141;SDS011;5625;50.122;19.864;2023-03-23T10:43:00;3.33;;;2.77;;
11141;SDS011;5625;50.122;19.864;2023-03-23T10:45:28;4.37;;;2.87;;
11141;SDS011;5625;50.122;19.864;2023-03-23T10:47:59;3.07;;;2.60;;
11141;SDS011;5625;50.122;19.864;2023-03-23T10:50:35;5.10;;;2.70;;
11141;SDS011;5625;50.122;19.864;2023-03-23T10:53:07;4.80;;;2.47;;
11141;SDS011;5625;50.122;19.864;2023-03-23T10:55:43;5.67;;;3.30;;
11141;SDS011;5625;50.122;19.864;2023-03-23T10:58:21;6.70;;;2.90;;
11141;SDS011;5625;50.122;19.864;2023-03-23T11:00:50;4.00;;;3.00;;
11141;SDS011;5625;50.122;19.864;2023-03-23T11:03:25;3.63;;;2.90;;
11141;SDS011;5625;50.122;19.864;2023-03-23T11:06:01;4.67;;;2.70;;
11141;SDS011;5625;50.122;19.864;2023-03-23T11:08:30;4.40;;;2.60;;
11141;SDS011;5625;50.122;19.864;2023-03-23T11:11:07;4.73;;;2.60;;
11141;SDS011;5625;50.122;19.864;2023-03-23T11:13:38;5.27;;;2.53;;
11141;SDS011;5625;50.122;19.864;2023-03-23T11:16:08;4.67;;;3.07;;
11141;SDS011;5625;50.122;19.864;2023-03-23T11:18:37;6.30;;;2.40;;
11141;SDS011;5625;50.122;19.864;2023-03-23T11:21:07;3.20;;;2.43;;
11141;SDS011;5625;50.122;19.864;2023-03-23T11:23:37;2.57;;;2.30;;
11141;SDS011;5625;50.122;19.864;2023-03-23T11:26:11;6.40;;;2.97;;
11141;SDS011;5625;50.122;19.864;2023-03-23T11:28:43;5.43;;;2.23;;
11141;SDS011;5625;50.122;19.864;2023-03-23T11:31:13;4.40;;;2.80;;
11141;SDS011;5625;50.122;19.864;2023-03-23T11:33:47;10.13;;;2.80;;
11141;SDS011;5625;50.122;19.864;2023-03-23T11:36:19;5.80;;;2.90;;
11141;SDS011;5625;50.122;19.864;2023-03-23T11:38:51;5.30;;;2.40;;
11141;SDS011;5625;50.122;19.864;2023-03-23T11:41:22;6.37;;;2.53;;
11141;SDS011;5625;50.122;19.864;2023-03-23T11:43:52;5.33;;;2.67;;
11141;SDS011;5625;50.122;19.864;2023-03-23T11:46:22;4.20;;;2.83;;
11141;SDS011;5625;50.122;19.864;2023-03-23T11:48:58;4.20;;;2.50;;
11141;SDS011;5625;50.122;19.864;2023-03-23T11:51:32;3.20;;;2.30;;
11141;SDS011;5625;50.122;19.864;2023-03-23T11:54:04;4.77;;;2.30;;
11141;SDS011;5625;50.122;19.864;2023-03-23T11:56:41;4.27;;;2.47;;
11141;SDS011;5625;50.122;19.864;2023-03-23T11:59:11;3.73;;;2.17;;
11141;SDS011;5625;50.122;19.864;2023-03-23T12:01:46;4.00;;;2.30;;
11141;SDS011;5625;50.122;19.864;2023-03-23T12:10:08;2.60;;;2.33;;
11141;SDS011;5625;50.122;19.864;2023-03-23T12:12:44;3.17;;;2.27;;
11141;SDS011;5625;50.122;19.864;2023-03-23T12:15:18;2.83;;;2.50;;
11141;SDS011;5625;50.122;19.864;2023-03-23T12:17:51;3.90;;;2.43;;
11141;SDS011;5625;50.122;19.864;2023-03-23T12:20:27;3.33;;;2.40;;
11141;SDS011;5625;50.122;19.864;2023-03-23T12:23:06;2.70;;;2.30;;
11141;SDS011;5625;50.122;19.864;2023-03-23T12:25:54;4.67;;;2.20;;
11141;SDS011;5625;50.122;19.864;2023-03-23T12:28:44;2.77;;;2.20;;
11141;SDS011;5625;50.122;19.864;2023-03-23T12:31:21;6.23;;;2.53;;
11141;SDS011;5625;50.122;19.864;2023-03-23T12:33:54;4.33;;;2.30;;
11141;SDS011;5625;50.122;19.864;2023-03-23T12:36:32;2.37;;;2.17;;
11141;SDS011;5625;50.122;19.864;2023-03-23T12:42:14;2.90;;;2.57;;
11141;SDS011;5625;50.122;19.864;2023-03-23T12:44:49;4.47;;;3.40;;
11141;SDS011;5625;50.122;19.864;2023-03-23T12:47:26;5.13;;;2.93;;
11141;SDS011;5625;50.122;19.864;2023-03-23T12:50:03;2.90;;;2.60;;
11141;SDS011;5625;50.122;19.864;2023-03-23T12:52:39;2.80;;;2.33;;
11141;SDS011;5625;50.122;19.864;2023-03-23T12:55:14;3.97;;;2.00;;
11141;SDS011;5625;50.122;19.864;2023-03-23T12:57:49;4.20;;;2.07;;
11141;SDS011;5625;50.122;19.864;2023-03-23T13:00:21;5.13;;;2.30;;
11141;SDS011;5625;50.122;19.864;2023-03-23T13:02:53;4.37;;;2.43;;
11141;SDS011;5625;50.122;19.864;2023-03-23T13:05:36;3.17;;;1.90;;
11141;SDS011;5625;50.122;19.864;2023-03-23T13:08:12;3.97;;;1.83;;
11141;SDS011;5625;50.122;19.864;2023-03-23T13:10:47;4.00;;;1.73;;
11141;SDS011;5625;50.122;19.864;2023-03-23T13:13:18;3.63;;;2.27;;
11141;SDS011;5625;50.122;19.864;2023-03-23T13:15:51;3.07;;;2.27;;
11141;SDS011;5625;50.122;19.864;2023-03-23T13:18:30;2.57;;;2.20;;
11141;SDS011;5625;50.122;19.864;2023-03-23T13:21:06;3.80;;;2.80;;
11141;SDS011;5625;50.122;19.864;2023-03-23T13:23:41;2.10;;;1.70;;
11141;SDS011;5625;50.122;19.864;2023-03-23T13:26:11;5.70;;;1.90;;
11141;SDS011;5625;50.122;19.864;2023-03-23T13:28:54;1.93;;;1.70;;
11141;SDS011;5625;50.122;19.864;2023-03-23T13:31:24;4.00;;;1.97;;
11141;SDS011;5625;50.122;19.864;2023-03-23T13:34:00;3.77;;;1.80;;
11141;SDS011;5625;50.122;19.864;2023-03-23T13:36:31;3.03;;;1.77;;
11141;SDS011;5625;50.122;19.864;2023-03-23T13:39:03;2.83;;;1.97;;
11141;SDS011;5625;50.122;19.864;2023-03-23T13:41:34;5.13;;;1.93;;
11141;SDS011;5625;50.122;19.864;2023-03-23T13:44:18;5.17;;;2.00;;
11141;SDS011;5625;50.122;19.864;2023-03-23T13:46:54;4.17;;;1.70;;
11141;SDS011;5625;50.122;19.864;2023-03-23T13:49:33;5.37;;;1.93;;
11141;SDS011;5625;50.122;19.864;2023-03-23T13:52:15;3.00;;;1.77;;
11141;SDS011;5625;50.122;19.864;2023-03-23T13:54:48;2.60;;;2.10;;
11141;SDS011;5625;50.122;19.864;2023-03-23T13:57:20;3.07;;;1.90;;
11141;SDS011;5625;50.122;19.864;2023-03-23T13:59:59;3.87;;;2.00;;
11141;SDS011;5625;50.122;19.864;2023-03-23T14:02:40;2.43;;;1.70;;
11141;SDS011;5625;50.122;19.864;2023-03-23T14:05:26;2.03;;;1.83;;
11141;SDS011;5625;50.122;19.864;2023-03-23T14:07:58;3.97;;;2.97;;
11141;SDS011;5625;50.122;19.864;2023-03-23T14:10:33;4.27;;;2.43;;
11141;SDS011;5625;50.122;19.864;2023-03-23T14:13:02;7.27;;;3.07;;
11141;SDS011;5625;50.122;19.864;2023-03-23T14:15:37;4.57;;;2.87;;
11141;SDS011;5625;50.122;19.864;2023-03-23T14:18:12;3.57;;;2.37;;
11141;SDS011;5625;50.122;19.864;2023-03-23T14:20:41;3.50;;;1.90;;
11141;SDS011;5625;50.122;19.864;2023-03-23T14:23:14;4.07;;;2.13;;
11141;SDS011;5625;50.122;19.864;2023-03-23T14:25:42;4.27;;;2.00;;
11141;SDS011;5625;50.122;19.864;2023-03-23T14:28:17;3.70;;;2.10;;
11141;SDS011;5625;50.122;19.864;2023-03-23T14:30:47;4.43;;;1.93;;
11141;SDS011;5625;50.122;19.864;2023-03-23T14:33:18;3.10;;;1.70;;
11141;SDS011;5625;50.122;19.864;2023-03-23T14:35:46;2.17;;;1.70;;
11141;SDS011;5625;50.122;19.864;2023-03-23T14:38:15;2.20;;;1.47;;
11141;SDS011;5625;50.122;19.864;2023-03-23T14:40:45;2.53;;;1.83;;
11141;SDS011;5625;50.122;19.864;2023-03-23T14:43:13;5.23;;;2.20;;
11141;SDS011;5625;50.122;19.864;2023-03-23T14:45:42;3.47;;;2.00;;
11141;SDS011;5625;50.122;19.864;2023-03-23T14:48:12;2.97;;;2.00;;
11141;SDS011;5625;50.122;19.864;2023-03-23T14:50:41;2.20;;;1.80;;
11141;SDS011;5625;50.122;19.864;2023-03-23T14:53:16;2.43;;;2.00;;
11141;SDS011;5625;50.122;19.864;2023-03-23T14:55:46;3.03;;;2.20;;
11141;SDS011;5625;50.122;19.864;2023-03-23T14:58:15;2.13;;;1.90;;
11141;SDS011;5625;50.122;19.864;2023-03-23T15:00:44;4.77;;;2.13;;
11141;SDS011;5625;50.122;19.864;2023-03-23T15:03:18;9.20;;;2.63;;
11141;SDS011;5625;50.122;19.864;2023-03-23T15:05:47;5.50;;;2.23;;
11141;SDS011;5625;50.122;19.864;2023-03-23T15:08:19;2.83;;;2.57;;
11141;SDS011;5625;50.122;19.864;2023-03-23T15:10:55;3.83;;;2.93;;
11141;SDS011;5625;50.122;19.864;2023-03-23T15:13:25;6.30;;;3.67;;
11141;SDS011;5625;50.122;19.864;2023-03-23T15:15:53;6.60;;;3.87;;